createdAt,value
2019-05-16T00:00:46.496Z,15.96
2019-05-16T00:03:19.231Z,15.41
2019-05-16T00:05:54.557Z,14.94
2019-05-16T00:08:28.386Z,14.47
2019-05-16T00:11:00.895Z,15.23
2019-05-16T00:13:33.635Z,16.78
2019-05-16T00:16:07.993Z,17.99
2019-05-16T00:18:40.480Z,18.00
2019-05-16T00:21:13.141Z,17.27
2019-05-16T00:23:48.309Z,16.59
2019-05-16T00:26:20.050Z,16.05
2019-05-16T00:28:52.610Z,15.52
2019-05-16T00:31:25.100Z,15.03
2019-05-16T00:33:57.933Z,14.61
2019-05-16T00:36:30.570Z,15.38
2019-05-16T00:39:04.910Z,16.93
2019-05-16T00:41:38.574Z,18.33
2019-05-16T00:44:11.315Z,18.25
2019-05-16T00:46:43.866Z,17.49
2019-05-16T00:49:18.580Z,16.86
2019-05-16T00:51:50.855Z,16.26
2019-05-16T00:54:23.340Z,15.73
2019-05-16T00:56:57.817Z,15.23
2019-05-16T00:59:31.326Z,14.76
2019-05-16T01:02:03.800Z,15.62
2019-05-16T01:04:38.147Z,17.20
2019-05-16T01:07:10.790Z,18.52
2019-05-16T01:09:43.485Z,18.64
2019-05-16T01:12:17.834Z,17.85
2019-05-16T01:14:50.630Z,17.10
2019-05-16T01:17:24.575Z,16.52
2019-05-16T01:19:58.291Z,15.96
2019-05-16T01:22:30.790Z,15.45
2019-05-16T01:25:03.478Z,15.00
2019-05-16T01:27:38.369Z,15.79
2019-05-16T01:30:10.810Z,17.41
2019-05-16T01:32:43.236Z,18.65
2019-05-16T01:35:16.106Z,18.65
2019-05-16T01:37:49.017Z,17.90
2019-05-16T01:40:21.730Z,17.24
2019-05-16T01:42:54.353Z,16.66
2019-05-16T01:45:27.764Z,16.13
2019-05-16T01:48:00.425Z,15.64
2019-05-16T01:50:32.986Z,15.15
2019-05-16T01:53:05.680Z,14.73
2019-05-16T01:55:38.335Z,15.68
2019-05-16T01:58:11.145Z,17.38
2019-05-16T02:00:52.667Z,18.71
2019-05-16T02:03:18.972Z,18.71
2019-05-16T02:05:51.790Z,17.97
2019-05-16T02:08:25.275Z,17.34
2019-05-16T02:10:58.365Z,16.76
2019-05-16T02:13:31.110Z,16.27
2019-05-16T02:16:03.900Z,15.78
2019-05-16T02:18:38.211Z,15.33
2019-05-16T02:21:11.085Z,16.26
2019-05-16T02:23:43.765Z,17.85
2019-05-16T02:26:18.913Z,19.17
2019-05-16T02:28:51.098Z,19.14
2019-05-16T02:31:24.115Z,18.38
2019-05-16T02:33:56.950Z,17.72
2019-05-16T02:36:31.426Z,17.17
2019-05-16T02:39:05.240Z,16.68
2019-05-16T02:41:37.946Z,16.21
2019-05-16T02:44:12.017Z,15.79
2019-05-16T02:46:44.750Z,16.71
2019-05-16T02:49:17.417Z,18.31
2019-05-16T02:51:51.189Z,18.58
2019-05-16T02:54:24.322Z,17.89
2019-05-16T02:56:56.990Z,17.27
2019-05-16T02:59:30.775Z,16.75
2019-05-16T03:02:03.680Z,16.30
2019-05-16T03:04:39.884Z,15.86
2019-05-16T03:07:13.537Z,16.69
2019-05-16T03:09:46.715Z,18.30
2019-05-16T03:12:21.289Z,19.72
2019-05-16T03:14:54.507Z,19.62
2019-05-16T03:17:31.797Z,18.89
2019-05-16T03:20:05.297Z,18.21
2019-05-16T03:22:40.972Z,17.62
2019-05-16T03:25:13.984Z,17.13
2019-05-16T03:27:46.738Z,16.62
2019-05-16T03:30:23.584Z,16.16
2019-05-16T03:32:55.035Z,16.95
2019-05-16T03:35:33.334Z,18.55
2019-05-16T03:38:05.590Z,19.88
2019-05-16T03:40:41.017Z,19.85
2019-05-16T03:43:12.328Z,19.09
2019-05-16T03:45:45.028Z,18.38
2019-05-16T03:48:20.963Z,17.82
2019-05-16T03:50:51.982Z,17.29
2019-05-16T03:53:24.921Z,16.82
2019-05-16T03:55:57.561Z,16.38
2019-05-16T03:58:30.984Z,17.07
2019-05-16T04:01:04.030Z,18.51
2019-05-16T04:03:36.901Z,19.85
2019-05-16T04:06:11.900Z,19.82
2019-05-16T04:08:44.115Z,19.09
2019-05-16T04:11:22.107Z,18.40
2019-05-16T04:13:51.246Z,17.84
2019-05-16T04:16:23.597Z,17.34
2019-05-16T04:18:56.518Z,16.89
2019-05-16T04:21:32.256Z,16.45
2019-05-16T04:24:03.689Z,17.16
2019-05-16T04:26:36.416Z,18.64
2019-05-16T04:29:11.957Z,19.89
2019-05-16T04:31:44.427Z,19.89
2019-05-16T04:34:17.006Z,19.17
2019-05-16T04:36:51.494Z,18.51
2019-05-16T04:39:23.952Z,17.99
2019-05-16T04:41:56.567Z,17.48
2019-05-16T04:44:31.076Z,17.03
2019-05-16T04:47:03.558Z,16.59
2019-05-16T04:49:36.241Z,17.40
2019-05-16T04:52:11.281Z,18.88
2019-05-16T04:54:43.376Z,20.20
2019-05-16T04:57:15.971Z,20.22
2019-05-16T04:59:50.874Z,19.48
2019-05-16T05:02:22.754Z,18.79
2019-05-16T05:04:55.592Z,18.24
2019-05-16T05:07:30.972Z,17.74
2019-05-16T05:10:02.573Z,17.29
2019-05-16T05:12:35.982Z,16.86
2019-05-16T05:15:11.175Z,17.57
2019-05-16T05:17:43.496Z,19.09
2019-05-16T05:20:16.430Z,20.31
2019-05-16T05:22:49.951Z,20.24
2019-05-16T05:25:22.713Z,19.54
2019-05-16T05:27:55.241Z,18.88
2019-05-16T05:30:30.237Z,18.28
2019-05-16T05:33:03.003Z,17.84
2019-05-16T05:35:35.833Z,17.35
2019-05-16T05:38:10.371Z,16.92
2019-05-16T05:40:42.490Z,17.60
2019-05-16T05:43:15.011Z,19.05
2019-05-16T05:45:47.725Z,20.26
2019-05-16T05:48:21.708Z,20.30
2019-05-16T05:50:54.942Z,19.58
2019-05-16T05:53:29.843Z,18.93
2019-05-16T05:56:01.852Z,18.35
2019-05-16T05:58:34.356Z,17.88
2019-05-16T06:01:07.213Z,17.42
2019-05-16T06:03:40.190Z,17.02
2019-05-16T06:06:13.031Z,17.74
2019-05-16T06:08:45.530Z,19.26
2019-05-16T06:11:20.320Z,20.62
2019-05-16T06:13:52.771Z,20.62
2019-05-16T06:16:25.561Z,19.88
2019-05-16T06:19:00.771Z,19.26
2019-05-16T06:21:33.883Z,18.70
2019-05-16T06:24:07.180Z,18.23
2019-05-16T06:26:39.976Z,17.79
2019-05-16T06:29:12.863Z,17.40
2019-05-16T06:31:45.730Z,18.16
2019-05-16T06:34:20.769Z,19.66
2019-05-16T06:36:53.050Z,19.98
2019-05-16T06:39:37.523Z,19.38
2019-05-16T06:42:00.506Z,18.83
2019-05-16T06:44:34.271Z,18.35
2019-05-16T06:47:16.898Z,18.00
2019-05-16T06:49:41.487Z,17.62
2019-05-16T06:52:14.430Z,18.40
2019-05-16T06:54:46.941Z,20.02
2019-05-16T06:57:20.612Z,21.49
2019-05-16T06:59:53.811Z,21.52
2019-05-16T07:02:30.608Z,20.88
2019-05-16T07:05:01.103Z,20.24
2019-05-16T07:07:35.147Z,19.75
2019-05-16T07:10:09.789Z,19.26
2019-05-16T07:12:43.805Z,18.75
2019-05-16T07:15:20.453Z,18.31
2019-05-16T07:17:52.680Z,17.89
2019-05-16T07:20:25.401Z,18.58
2019-05-16T07:22:57.919Z,20.03
2019-05-16T07:25:30.640Z,21.26
2019-05-16T07:28:03.510Z,21.22
2019-05-16T07:30:36.180Z,20.52
2019-05-16T07:33:09.826Z,19.93
2019-05-16T07:35:42.352Z,19.43
2019-05-16T07:38:15.580Z,18.93
2019-05-16T07:40:50.790Z,18.48
2019-05-16T07:43:22.280Z,18.07
2019-05-16T07:45:54.680Z,18.76
2019-05-16T07:48:31.737Z,20.37
2019-05-16T07:51:05.781Z,21.70
2019-05-16T07:53:40.065Z,21.65
2019-05-16T07:56:12.404Z,21.01
2019-05-16T07:58:44.981Z,20.39
2019-05-16T08:01:17.361Z,19.86
2019-05-16T08:03:50.988Z,19.38
2019-05-16T08:06:23.741Z,18.96
2019-05-16T08:08:56.623Z,18.54
2019-05-16T08:11:30.666Z,18.13
2019-05-16T08:14:03.221Z,18.99
2019-05-16T08:16:35.951Z,20.50
2019-05-16T08:19:10.282Z,20.85
2019-05-16T08:21:43.040Z,20.27
2019-05-16T08:24:16.980Z,19.76
2019-05-16T08:26:51.586Z,19.31
2019-05-16T08:29:24.271Z,18.98
2019-05-16T08:32:01.802Z,18.55
2019-05-16T08:34:35.948Z,18.24
2019-05-16T08:37:30.632Z,19.17
2019-05-16T08:39:42.895Z,20.72
2019-05-16T08:42:15.524Z,21.71
2019-05-16T08:44:47.895Z,21.70
2019-05-16T08:47:21.275Z,21.09
2019-05-16T08:49:53.935Z,20.50
2019-05-16T08:52:26.577Z,20.01
2019-05-16T08:55:03.139Z,19.58
2019-05-16T08:57:33.565Z,19.19
2019-05-16T09:00:12.729Z,18.78
2019-05-16T09:02:42.955Z,19.65
2019-05-16T09:05:15.935Z,21.32
2019-05-16T09:07:48.538Z,21.56
2019-05-16T09:12:57.210Z,20.39
2019-05-16T09:15:29.537Z,19.85
2019-05-16T09:18:02.157Z,19.41
2019-05-16T09:20:37.383Z,18.98
2019-05-16T09:23:09.016Z,18.52
2019-05-16T09:25:41.419Z,18.16
2019-05-16T09:28:16.751Z,18.92
2019-05-16T09:30:48.335Z,20.43
2019-05-16T09:33:21.036Z,21.63
2019-05-16T09:35:53.596Z,21.61
2019-05-16T09:38:28.488Z,20.94
2019-05-16T09:41:00.336Z,20.34
2019-05-16T09:43:33.076Z,19.81
2019-05-16T09:46:07.845Z,19.29
2019-05-16T09:48:39.716Z,18.88
2019-05-16T09:51:12.135Z,18.44
2019-05-16T09:53:47.007Z,18.12
2019-05-16T09:56:18.859Z,19.00
2019-05-16T09:58:51.257Z,20.64
2019-05-16T10:01:23.956Z,20.98
2019-05-16T10:03:56.383Z,20.37
2019-05-16T10:06:28.996Z,19.85
2019-05-16T10:09:01.561Z,19.41
2019-05-16T10:11:40.995Z,19.03
2019-05-16T10:14:09.500Z,18.62
2019-05-16T10:16:41.795Z,19.51
2019-05-16T10:19:16.802Z,21.15
2019-05-16T10:21:50.189Z,21.42
2019-05-16T10:24:22.866Z,20.84
2019-05-16T10:26:57.146Z,20.34
2019-05-16T10:29:29.750Z,19.91
2019-05-16T10:32:02.191Z,19.50
2019-05-16T10:34:37.110Z,19.17
2019-05-16T10:37:09.906Z,18.78
2019-05-16T10:39:43.466Z,18.47
2019-05-16T10:42:27.439Z,19.51
2019-05-16T10:44:51.645Z,21.23
2019-05-16T10:47:24.068Z,21.58
2019-05-16T10:49:56.745Z,21.09
2019-05-16T10:52:29.166Z,20.61
2019-05-16T10:55:02.649Z,20.20
2019-05-16T10:57:37.824Z,19.86
2019-05-16T11:00:21.571Z,19.55
2019-05-16T11:02:44.922Z,19.27
2019-05-16T11:05:29.871Z,19.03
2019-05-16T11:07:53.465Z,18.76
2019-05-16T11:10:29.537Z,19.95
2019-05-16T11:13:00.645Z,21.81
2019-05-16T11:15:33.235Z,22.12
2019-05-16T11:18:06.878Z,21.61
2019-05-16T11:20:39.621Z,21.16
2019-05-16T11:23:12.120Z,20.74
2019-05-16T11:25:46.970Z,20.39
2019-05-16T11:28:19.293Z,20.05
2019-05-16T11:30:51.804Z,19.76
2019-05-16T11:33:27.893Z,19.50
2019-05-16T11:35:58.665Z,19.25
2019-05-16T11:38:31.182Z,18.99
2019-05-16T11:41:03.526Z,19.89
2019-05-16T11:43:36.681Z,21.63
2019-05-16T11:46:09.385Z,22.07
2019-05-16T11:48:42.266Z,21.64
2019-05-16T11:51:14.625Z,21.29
2019-05-16T11:53:47.708Z,20.99
2019-05-16T11:56:20.125Z,20.71
2019-05-16T11:58:52.446Z,20.48
2019-05-16T12:01:27.267Z,20.24
2019-05-16T12:03:58.866Z,20.05
2019-05-16T12:06:32.825Z,19.86
2019-05-16T12:09:08.085Z,19.66
2019-05-16T12:11:40.326Z,19.48
2019-05-16T12:14:12.730Z,19.31
2019-05-16T12:16:47.300Z,19.13
2019-05-16T12:19:19.088Z,20.16
2019-05-16T12:21:51.525Z,21.87
2019-05-16T12:24:36.382Z,22.19
2019-05-16T12:27:02.068Z,21.71
2019-05-16T12:29:37.087Z,21.29
2019-05-16T12:32:08.770Z,20.91
2019-05-16T12:34:41.425Z,20.60
2019-05-16T12:37:13.906Z,20.30
2019-05-16T12:39:47.153Z,19.99
2019-05-16T12:42:20.071Z,19.72
2019-05-16T12:44:52.345Z,19.46
2019-05-16T12:47:24.711Z,19.23
2019-05-16T12:49:57.068Z,18.99
2019-05-16T12:52:29.508Z,18.75
2019-05-16T12:55:06.126Z,18.55
2019-05-16T12:57:38.708Z,19.57
2019-05-16T13:00:15.652Z,21.32
2019-05-16T13:02:47.863Z,21.70
2019-05-16T13:05:20.635Z,21.27
2019-05-16T13:07:53.045Z,20.87
2019-05-16T13:10:27.072Z,20.61
2019-05-16T13:12:59.565Z,20.34
2019-05-16T13:15:32.027Z,20.15
2019-05-16T13:18:04.385Z,19.93
2019-05-16T13:20:39.266Z,19.71
2019-05-16T13:23:14.469Z,19.50
2019-05-16T13:25:48.206Z,19.31
2019-05-16T13:28:20.826Z,19.11
2019-05-16T13:30:53.067Z,18.95
2019-05-16T13:33:27.115Z,18.76
2019-05-16T13:35:59.649Z,19.86
2019-05-16T13:38:32.228Z,21.64
2019-05-16T13:41:07.342Z,22.05
2019-05-16T13:43:39.166Z,21.68
2019-05-16T13:46:11.426Z,21.32
2019-05-16T13:48:44.786Z,20.99
2019-05-16T13:51:19.147Z,20.71
2019-05-16T13:53:51.245Z,20.46
2019-05-16T13:56:27.163Z,20.17
2019-05-16T13:58:58.927Z,19.92
2019-05-16T14:01:31.342Z,19.69
2019-05-16T14:04:09.063Z,19.51
2019-05-16T14:06:41.444Z,19.33
2019-05-16T14:09:12.162Z,19.17
2019-05-16T14:11:46.469Z,19.02
2019-05-16T14:14:33.643Z,18.88
2019-05-16T14:16:55.545Z,19.89
2019-05-16T14:19:27.846Z,21.60
2019-05-16T14:22:00.305Z,21.97
2019-05-16T14:24:33.007Z,21.57
2019-05-16T14:27:06.627Z,21.23
2019-05-16T14:29:39.425Z,20.91
2019-05-16T14:32:11.910Z,20.60
2019-05-16T14:34:50.130Z,20.29
2019-05-16T14:37:18.394Z,20.03
2019-05-16T14:39:50.812Z,19.76
2019-05-16T14:42:23.126Z,19.57
2019-05-16T14:45:06.435Z,19.34
2019-05-16T14:47:29.648Z,19.17
2019-05-16T14:50:03.327Z,18.98
2019-05-16T14:52:36.642Z,18.79
2019-05-16T14:55:09.566Z,19.72
2019-05-16T14:57:42.006Z,21.34
2019-05-16T15:00:14.805Z,21.70
2019-05-16T15:02:48.298Z,21.23
2019-05-16T15:05:21.285Z,20.81
2019-05-16T15:07:54.105Z,20.47
2019-05-16T15:10:26.989Z,20.16
2019-05-16T15:12:59.827Z,19.86
2019-05-16T15:15:32.326Z,19.61
2019-05-16T15:18:08.036Z,19.34
2019-05-16T15:20:39.503Z,19.10
2019-05-16T15:23:12.074Z,18.86
2019-05-16T15:25:44.387Z,18.61
2019-05-16T15:28:17.336Z,18.40
2019-05-16T15:30:49.831Z,18.20
2019-05-16T15:33:22.245Z,19.17
2019-05-16T15:35:57.509Z,20.87
2019-05-16T15:38:28.705Z,21.23
2019-05-16T15:41:01.432Z,20.78
2019-05-16T15:43:36.666Z,20.36
2019-05-16T15:46:09.448Z,19.99
2019-05-16T15:48:42.831Z,19.66
2019-05-16T15:51:20.392Z,19.38
2019-05-16T15:53:50.841Z,19.13
2019-05-16T15:56:23.960Z,18.78
2019-05-16T15:58:56.586Z,18.51
2019-05-16T16:01:29.191Z,18.28
2019-05-16T16:04:02.112Z,18.06
2019-05-16T16:06:37.731Z,17.85
2019-05-16T16:09:09.896Z,17.62
2019-05-16T16:11:42.790Z,18.70
2019-05-16T16:14:17.187Z,20.52
2019-05-16T16:16:50.066Z,20.94
2019-05-16T16:19:23.060Z,20.47
2019-05-16T16:21:57.844Z,20.01
2019-05-16T16:24:30.472Z,19.65
2019-05-16T16:27:03.396Z,19.34
2019-05-16T16:29:36.711Z,19.05
2019-05-16T16:32:09.525Z,18.74
2019-05-16T16:34:42.451Z,18.46
2019-05-16T16:37:16.789Z,18.20
2019-05-16T16:39:49.960Z,17.99
2019-05-16T16:42:22.771Z,18.90
2019-05-16T16:44:56.570Z,20.55
2019-05-16T16:47:29.121Z,20.94
2019-05-16T16:50:01.884Z,20.43
2019-05-16T16:52:37.409Z,19.98
2019-05-16T16:55:09.707Z,19.58
2019-05-16T16:57:42.460Z,19.20
2019-05-16T17:00:19.457Z,18.90
2019-05-16T17:03:03.327Z,18.55
2019-05-16T17:05:27.745Z,18.28
2019-05-16T17:08:00.340Z,18.02
2019-05-16T17:10:33.195Z,18.86
2019-05-16T17:13:06.843Z,20.52
2019-05-16T17:15:42.268Z,20.87
2019-05-16T17:18:17.449Z,20.33
2019-05-16T17:20:49.837Z,19.85
2019-05-16T17:23:22.570Z,19.44
2019-05-16T17:25:56.678Z,19.06
2019-05-16T17:28:29.676Z,18.70
2019-05-16T17:31:02.606Z,18.35
2019-05-16T17:33:38.148Z,18.07
2019-05-16T17:36:10.185Z,17.78
2019-05-16T17:38:43.400Z,18.65
2019-05-16T17:41:16.830Z,20.36
2019-05-16T17:43:49.850Z,20.64
2019-05-16T17:46:33.998Z,20.09
2019-05-16T17:48:57.153Z,19.57
2019-05-16T17:51:30.285Z,19.14
2019-05-16T17:54:03.040Z,18.75
2019-05-16T17:56:37.036Z,18.40
2019-05-16T17:59:10.190Z,18.03
2019-05-16T18:01:43.040Z,17.76
2019-05-16T18:04:17.308Z,17.44
2019-05-16T18:06:50.594Z,17.13
2019-05-16T18:09:23.615Z,18.16
2019-05-16T18:11:57.444Z,19.84
2019-05-16T18:14:30.275Z,21.19
2019-05-16T18:17:02.965Z,21.25
2019-05-16T18:19:37.288Z,20.65
2019-05-16T18:22:10.221Z,20.06
2019-05-16T18:24:42.672Z,19.62
2019-05-16T18:27:17.230Z,19.17
2019-05-16T18:29:50.165Z,18.78
2019-05-16T18:32:23.125Z,18.37
2019-05-16T18:34:56.407Z,17.99
2019-05-16T18:37:33.314Z,17.68
2019-05-16T18:40:07.304Z,18.47
2019-05-16T18:42:40.226Z,20.17
2019-05-16T18:45:16.319Z,20.44
2019-05-16T18:47:48.346Z,19.85
2019-05-16T18:50:21.080Z,19.31
2019-05-16T18:52:56.947Z,18.89
2019-05-16T18:55:29.753Z,18.46
2019-05-16T18:58:04.943Z,18.09
2019-05-16T19:00:37.530Z,17.74
2019-05-16T19:03:10.670Z,17.40
2019-05-16T19:05:43.476Z,18.14
2019-05-16T19:08:16.482Z,19.65
2019-05-16T19:10:49.200Z,19.93
2019-05-16T19:13:21.975Z,19.41
2019-05-16T19:15:57.009Z,18.90
2019-05-16T19:18:29.511Z,18.43
2019-05-16T19:21:02.045Z,18.03
2019-05-16T19:23:37.413Z,17.69
2019-05-16T19:26:09.830Z,17.34
2019-05-16T19:28:42.416Z,18.06
2019-05-16T19:31:17.180Z,19.54
2019-05-16T19:33:51.172Z,20.71
2019-05-16T19:36:23.876Z,20.71
2019-05-16T19:38:57.126Z,20.11
2019-05-16T19:41:29.640Z,19.57
2019-05-16T19:44:02.665Z,19.06
2019-05-16T19:46:38.609Z,18.58
2019-05-16T19:49:10.465Z,18.16
2019-05-16T19:51:45.844Z,17.74
2019-05-16T19:54:18.675Z,18.52
2019-05-16T19:56:52.380Z,19.99
2019-05-16T19:59:27.088Z,20.27
2019-05-16T20:01:59.611Z,19.66
2019-05-16T20:04:32.555Z,19.11
2019-05-16T20:07:07.416Z,18.60
2019-05-16T20:09:41.105Z,18.16
2019-05-16T20:12:13.741Z,17.75
2019-05-16T20:14:47.301Z,17.33
2019-05-16T20:17:19.936Z,18.10
2019-05-16T20:19:52.625Z,19.57
2019-05-16T20:22:26.142Z,20.77
2019-05-16T20:24:58.980Z,20.75
2019-05-16T20:27:31.785Z,20.09
2019-05-16T20:30:06.674Z,19.51
2019-05-16T20:32:39.845Z,19.02
2019-05-16T20:35:13.020Z,18.54
2019-05-16T20:37:47.297Z,18.09
2019-05-16T20:40:20.748Z,17.64
2019-05-16T20:42:53.855Z,17.27
2019-05-16T20:45:27.161Z,17.99
2019-05-16T20:48:10.790Z,19.65
2019-05-16T20:50:34.662Z,20.95
2019-05-16T20:53:07.419Z,20.95
2019-05-16T20:55:40.340Z,20.30
2019-05-16T20:58:12.825Z,19.69
2019-05-16T21:00:46.950Z,19.19
2019-05-16T21:03:20.155Z,18.68
2019-05-16T21:05:53.042Z,18.24
2019-05-16T21:08:26.601Z,17.84
2019-05-16T21:10:59.295Z,17.44
2019-05-16T21:13:32.291Z,18.16
2019-05-16T21:16:07.042Z,19.69
2019-05-16T21:18:39.541Z,21.16
2019-05-16T21:21:12.462Z,21.27
2019-05-16T21:23:46.979Z,20.57
2019-05-16T21:26:19.981Z,19.93
2019-05-16T21:28:52.691Z,19.40
2019-05-16T21:31:27.553Z,18.93
2019-05-16T21:34:00.510Z,18.41
2019-05-16T21:36:33.416Z,18.02
2019-05-16T21:39:08.613Z,17.61
2019-05-16T21:41:41.550Z,17.23
2019-05-16T21:44:14.201Z,18.03
2019-05-16T21:46:47.310Z,19.66
2019-05-16T21:49:20.016Z,21.03
2019-05-16T21:51:52.761Z,21.02
2019-05-16T21:54:28.692Z,20.33
2019-05-16T21:56:59.586Z,19.66
2019-05-16T21:59:32.568Z,19.11
2019-05-16T22:02:05.720Z,18.57
2019-05-16T22:04:38.793Z,18.06
2019-05-16T22:07:13.315Z,17.61
2019-05-16T22:09:46.634Z,17.20
2019-05-16T22:12:19.321Z,18.00
2019-05-16T22:14:54.120Z,19.62
2019-05-16T22:17:27.503Z,20.98
2019-05-16T22:20:00.200Z,20.98
2019-05-16T22:22:32.981Z,20.24
2019-05-16T22:25:07.701Z,19.57
2019-05-16T22:27:40.150Z,19.00
2019-05-16T22:30:17.561Z,18.47
2019-05-16T22:32:50.295Z,17.97
2019-05-16T22:35:23.100Z,17.54
2019-05-16T22:37:59.265Z,17.17
2019-05-16T22:40:32.875Z,17.90
2019-05-16T22:43:09.748Z,19.38
2019-05-16T22:45:39.335Z,20.64
2019-05-16T22:48:12.245Z,20.64
2019-05-16T22:50:44.800Z,19.96
2019-05-16T22:53:17.621Z,19.33
2019-05-16T22:55:50.107Z,18.83
2019-05-16T22:58:23.076Z,18.34
2019-05-16T23:00:57.284Z,17.89
2019-05-16T23:03:30.180Z,17.48
2019-05-16T23:06:03.195Z,18.30
2019-05-16T23:08:36.471Z,19.98
2019-05-16T23:11:09.250Z,20.30
2019-05-16T23:13:41.901Z,19.64
2019-05-16T23:16:16.995Z,19.06
2019-05-16T23:18:49.145Z,18.50
2019-05-16T23:21:21.900Z,18.06
2019-05-16T23:23:56.995Z,17.64
2019-05-16T23:26:30.025Z,18.44
2019-05-16T23:29:02.886Z,20.06
2019-05-16T23:31:36.576Z,20.36
2019-05-16T23:34:09.565Z,19.68
2019-05-16T23:36:42.285Z,19.10
2019-05-16T23:39:15.140Z,18.54
2019-05-16T23:41:47.635Z,18.09
2019-05-16T23:44:20.211Z,17.65
2019-05-16T23:46:52.901Z,17.26
2019-05-16T23:49:27.479Z,18.14
2019-05-16T23:52:00.006Z,19.82
2019-05-16T23:54:32.835Z,21.13
2019-05-16T23:57:06.552Z,21.09
2019-05-16T23:59:39.605Z,20.30
